Westbrook Park, Pennsylvania
Current Conditions -  °F | °C
As of 6:54 PM on Monday 20 Oct 2014 (Local Time) from KPHL Reporting Station
Broken Clouds Broken Clouds  
Wind Chill: 58°   Ceiling: 19000
Heat Index: 58°   Visibility: 10mi
Dew Point: 44°   Wind: 5mph
Humidity: 60%   Direction: 180°S
Pressure: 29.98"   Gusts: NA
Location:  39.9228°N, 75.2984°W
Report Text: KPHL 202254Z 18004KT 10SM BKN190 BKN250 14/07 A2998 RMK AO2 SLP150 T01440067
Loading
Personal Weather Stations






























Interactive Weather Map
Tropical Storm Tracking
New forecast layout! Learn more

10-Day Weather Forecast

Advertisements
Track Severe Weather on mobile